createdAt,value
2018-05-24T00:01:06.123Z,2.50
2018-05-24T00:03:34.145Z,3.93
2018-05-24T00:06:02.348Z,6.10
2018-05-24T00:08:30.357Z,3.93
2018-05-24T00:10:57.980Z,3.03
2018-05-24T00:13:27.180Z,4.00
2018-05-24T00:15:54.800Z,4.07
2018-05-24T00:18:23.183Z,1.67
2018-05-24T00:20:52.004Z,3.30
2018-05-24T00:23:19.633Z,4.37
2018-05-24T00:25:47.653Z,3.07
2018-05-24T00:28:15.313Z,2.97
2018-05-24T00:30:42.945Z,6.40
2018-05-24T00:33:10.573Z,3.73
2018-05-24T00:35:38.941Z,3.53
2018-05-24T00:38:06.582Z,2.27
2018-05-24T00:40:34.607Z,5.70
2018-05-24T00:43:02.250Z,3.60
2018-05-24T00:45:30.420Z,3.10
2018-05-24T00:47:58.412Z,2.80
2018-05-24T00:50:26.424Z,3.77
2018-05-24T00:52:55.594Z,2.87
2018-05-24T00:55:34.962Z,2.57
2018-05-24T00:58:02.628Z,3.00
2018-05-24T01:00:31.042Z,8.83
2018-05-24T01:02:59.566Z,2.53
2018-05-24T01:05:27.204Z,4.30
2018-05-24T01:07:55.244Z,2.93
2018-05-24T01:10:23.670Z,3.00
2018-05-24T01:12:52.088Z,2.67
2018-05-24T01:15:19.755Z,2.20
2018-05-24T01:17:48.163Z,3.20
2018-05-24T01:20:16.579Z,9.80
2018-05-24T01:22:45.087Z,3.90
2018-05-24T01:25:13.081Z,3.03
2018-05-24T01:27:41.086Z,3.23
2018-05-24T01:30:09.138Z,3.33
2018-05-24T01:32:37.520Z,2.10
2018-05-24T01:35:05.224Z,4.17
2018-05-24T01:37:50.613Z,2.50
2018-05-24T01:40:18.263Z,5.90
2018-05-24T01:42:45.884Z,2.80
2018-05-24T01:45:13.509Z,2.37
2018-05-24T01:47:41.557Z,2.53
2018-05-24T01:50:09.260Z,3.93
2018-05-24T01:52:36.854Z,3.50
2018-05-24T01:55:05.240Z,3.07
2018-05-24T01:57:33.651Z,5.07
2018-05-24T02:00:01.690Z,2.83
2018-05-24T02:02:30.088Z,3.97
2018-05-24T02:04:59.497Z,2.57
2018-05-24T02:07:27.883Z,3.60
2018-05-24T02:09:57.025Z,3.00
2018-05-24T02:12:25.439Z,2.23
2018-05-24T02:14:53.046Z,7.30
2018-05-24T02:17:21.091Z,2.50
2018-05-24T02:19:48.704Z,4.30
2018-05-24T02:22:16.356Z,3.07
2018-05-24T02:24:43.966Z,4.67
2018-05-24T02:27:11.711Z,6.43
2018-05-24T02:29:40.104Z,3.70
2018-05-24T02:32:07.714Z,3.37
2018-05-24T02:34:35.761Z,2.90
2018-05-24T02:37:03.403Z,4.53
2018-05-24T02:39:31.055Z,3.37
2018-05-24T02:41:58.656Z,4.07
2018-05-24T02:44:26.726Z,2.97
2018-05-24T02:46:55.114Z,2.93
2018-05-24T02:49:23.476Z,2.73
2018-05-24T02:51:51.502Z,3.97
2018-05-24T02:54:23.196Z,4.37
2018-05-24T02:56:51.239Z,6.70
2018-05-24T02:59:18.873Z,7.50
2018-05-24T03:01:46.565Z,3.83
2018-05-24T03:04:14.234Z,2.80
2018-05-24T03:06:42.649Z,3.73
2018-05-24T03:09:11.817Z,5.33
2018-05-24T03:11:39.816Z,4.07
2018-05-24T03:14:08.237Z,4.40
2018-05-24T03:16:35.848Z,4.07
2018-05-24T03:19:04.267Z,2.13
2018-05-24T03:21:32.306Z,3.30
2018-05-24T03:23:59.901Z,2.47
2018-05-24T03:26:27.632Z,4.90
2018-05-24T03:28:56.015Z,2.40
2018-05-24T03:31:24.389Z,2.50
2018-05-24T03:33:52.992Z,6.63
2018-05-24T03:36:21.310Z,3.10
2018-05-24T03:38:48.928Z,5.20
2018-05-24T03:41:18.092Z,3.03
2018-05-24T03:43:45.705Z,3.90
2018-05-24T03:46:13.432Z,2.50
2018-05-24T03:48:41.061Z,8.53
2018-05-24T03:51:09.075Z,4.80
2018-05-24T03:53:37.890Z,3.13
2018-05-24T03:56:05.536Z,2.97
2018-05-24T03:58:33.147Z,2.80
2018-05-24T04:01:12.542Z,3.00
2018-05-24T04:03:48.837Z,5.33
2018-05-24T04:06:17.292Z,4.33
2018-05-24T04:08:45.061Z,4.20
2018-05-24T04:11:13.860Z,3.43
2018-05-24T04:13:41.504Z,3.43
2018-05-24T04:16:09.144Z,3.70
2018-05-24T04:18:37.526Z,8.53
2018-05-24T04:21:05.549Z,4.53
2018-05-24T04:23:33.567Z,4.47
2018-05-24T04:26:01.236Z,3.67
2018-05-24T04:28:29.265Z,4.47
2018-05-24T04:30:56.906Z,9.63
2018-05-24T04:33:24.629Z,5.07
2018-05-24T04:35:52.229Z,4.13
2018-05-24T04:38:19.834Z,3.37
2018-05-24T04:40:48.234Z,5.03
2018-05-24T04:43:16.224Z,3.60
2018-05-24T04:45:45.516Z,5.60
2018-05-24T04:48:13.523Z,4.63
2018-05-24T04:50:41.131Z,4.10
2018-05-24T04:53:08.777Z,4.03
2018-05-24T04:55:37.161Z,5.87
2018-05-24T04:58:05.540Z,3.30
2018-05-24T05:00:33.927Z,6.80
2018-05-24T05:03:01.564Z,2.87
2018-05-24T05:05:29.970Z,5.27
2018-05-24T05:07:57.603Z,4.83
2018-05-24T05:10:25.236Z,7.87
2018-05-24T05:12:54.090Z,4.87
2018-05-24T05:15:21.699Z,2.97
2018-05-24T05:17:50.090Z,3.53
2018-05-24T05:20:18.127Z,5.57
2018-05-24T05:22:47.102Z,3.27
2018-05-24T05:25:15.591Z,6.63
2018-05-24T05:27:43.124Z,6.03
2018-05-24T05:30:11.196Z,10.93
2018-05-24T05:32:39.199Z,8.57
2018-05-24T05:35:07.254Z,5.70
2018-05-24T05:37:34.930Z,6.63
2018-05-24T05:40:02.474Z,11.53
2018-05-24T05:42:31.475Z,4.23
2018-05-24T05:44:59.126Z,6.57
2018-05-24T05:47:28.268Z,4.03
2018-05-24T05:49:57.216Z,7.70
2018-05-24T05:52:26.178Z,7.43
2018-05-24T05:54:54.201Z,7.90
2018-05-24T05:57:21.848Z,5.60
2018-05-24T05:59:49.887Z,6.40
2018-05-24T06:02:18.295Z,6.50
2018-05-24T06:04:45.906Z,4.30
2018-05-24T06:07:13.528Z,3.93
2018-05-24T06:09:41.226Z,7.03
2018-05-24T06:12:09.901Z,4.57
2018-05-24T06:14:37.529Z,7.63
2018-05-24T06:17:06.306Z,4.03
2018-05-24T06:19:33.922Z,5.17
2018-05-24T06:22:01.957Z,4.73
2018-05-24T06:24:29.576Z,5.27
2018-05-24T06:26:57.972Z,5.80
2018-05-24T06:29:27.139Z,6.37
2018-05-24T06:31:55.543Z,9.20
2018-05-24T06:34:23.555Z,5.53
2018-05-24T06:36:52.062Z,6.27
2018-05-24T06:39:21.176Z,10.53
2018-05-24T06:41:49.542Z,8.40
2018-05-24T06:44:32.227Z,5.67
2018-05-24T06:46:59.836Z,6.33
2018-05-24T06:49:28.270Z,4.73
2018-05-24T06:51:56.405Z,9.43
2018-05-24T06:54:24.084Z,8.23
2018-05-24T06:56:51.718Z,6.70
2018-05-24T06:59:20.120Z,6.20
2018-05-24T07:01:47.768Z,5.43
2018-05-24T07:04:15.780Z,8.40
2018-05-24T07:06:43.396Z,7.73
2018-05-24T07:09:11.078Z,7.13
2018-05-24T07:11:39.459Z,6.00
2018-05-24T07:14:07.200Z,10.07
2018-05-24T07:16:35.099Z,10.63
2018-05-24T07:19:03.143Z,70.97
2018-05-24T07:21:30.795Z,11.13
2018-05-24T07:23:59.172Z,7.47
2018-05-24T07:26:27.196Z,5.10
2018-05-24T07:28:54.786Z,7.93
2018-05-24T07:31:22.442Z,14.83
2018-05-24T07:33:50.065Z,7.70
2018-05-24T07:36:18.077Z,8.93
2018-05-24T07:38:46.116Z,9.10
2018-05-24T07:41:14.523Z,8.43
2018-05-24T07:43:42.135Z,10.47
2018-05-24T07:46:10.209Z,7.07
2018-05-24T07:48:37.819Z,7.57
2018-05-24T07:51:05.436Z,9.33
2018-05-24T07:53:34.215Z,6.43
2018-05-24T07:56:01.804Z,6.40
2018-05-24T07:58:29.415Z,7.80
2018-05-24T08:00:57.084Z,7.27
2018-05-24T08:03:25.816Z,9.70
2018-05-24T08:05:53.583Z,13.70
2018-05-24T08:08:21.949Z,7.97
2018-05-24T08:10:50.914Z,9.23
2018-05-24T08:13:18.568Z,17.07
2018-05-24T08:15:46.192Z,12.17
2018-05-24T08:18:14.231Z,7.83
2018-05-24T08:20:41.842Z,7.80
2018-05-24T08:23:10.229Z,8.37
2018-05-24T08:25:38.221Z,15.43
2018-05-24T08:28:05.871Z,19.10
2018-05-24T08:30:33.892Z,17.20
2018-05-24T08:33:02.274Z,14.33
2018-05-24T08:35:29.942Z,7.97
2018-05-24T08:37:57.939Z,12.20
2018-05-24T08:40:26.312Z,80.63
2018-05-24T08:42:55.108Z,109.37
2018-05-24T08:45:23.132Z,97.07
2018-05-24T08:47:50.750Z,80.90
2018-05-24T08:50:18.796Z,11.13
2018-05-24T08:52:47.254Z,7.50
2018-05-24T08:55:14.875Z,24.07
2018-05-24T08:57:42.927Z,9.70
2018-05-24T09:00:12.081Z,6.97
2018-05-24T09:02:39.679Z,11.47
2018-05-24T09:05:08.119Z,17.30
2018-05-24T09:07:35.726Z,7.77
2018-05-24T09:10:03.366Z,7.00
2018-05-24T09:12:31.888Z,6.80
2018-05-24T09:14:59.515Z,7.23
2018-05-24T09:17:27.912Z,26.07
2018-05-24T09:19:55.559Z,9.40
2018-05-24T09:22:23.920Z,7.77
2018-05-24T09:24:51.560Z,6.93
2018-05-24T09:27:19.174Z,5.10
2018-05-24T09:29:47.188Z,8.90
2018-05-24T09:32:15.621Z,8.17
2018-05-24T09:34:43.241Z,7.43
2018-05-24T09:37:10.905Z,6.70
2018-05-24T09:39:38.519Z,8.23
2018-05-24T09:42:06.137Z,7.23
2018-05-24T09:44:34.161Z,6.93
2018-05-24T09:47:01.770Z,19.13
2018-05-24T09:49:29.927Z,5.10
2018-05-24T09:51:57.539Z,8.70
2018-05-24T09:54:36.947Z,6.13
2018-05-24T09:57:04.607Z,10.80
2018-05-24T09:59:33.017Z,4.70
2018-05-24T10:02:00.748Z,7.17
2018-05-24T10:04:28.772Z,3.43
2018-05-24T10:06:56.381Z,11.23
2018-05-24T10:09:24.059Z,8.73
2018-05-24T10:11:52.817Z,6.10
2018-05-24T10:14:20.418Z,5.97
2018-05-24T10:16:48.453Z,5.60
2018-05-24T10:19:17.616Z,7.67
2018-05-24T10:21:45.629Z,7.23
2018-05-24T10:24:13.289Z,10.60
2018-05-24T10:26:41.661Z,4.60
2018-05-24T10:29:09.293Z,13.40
2018-05-24T10:31:36.948Z,12.80
2018-05-24T10:34:04.560Z,6.20
2018-05-24T10:36:33.790Z,5.93
2018-05-24T10:39:02.168Z,4.83
2018-05-24T10:41:29.795Z,6.37
2018-05-24T10:43:57.420Z,11.10
2018-05-24T10:46:25.029Z,4.50
2018-05-24T10:48:53.412Z,5.60
2018-05-24T10:51:21.833Z,8.40
2018-05-24T10:53:49.884Z,5.87
2018-05-24T10:56:17.554Z,4.67
2018-05-24T10:58:45.253Z,6.57
2018-05-24T11:01:13.549Z,7.50
2018-05-24T11:03:41.986Z,5.80
2018-05-24T11:08:36.426Z,7.00
2018-05-24T11:11:04.539Z,6.00
2018-05-24T11:13:32.639Z,7.33
2018-05-24T11:16:00.406Z,5.00
2018-05-24T11:18:28.349Z,7.60
2018-05-24T11:20:57.376Z,4.10
2018-05-24T11:23:25.072Z,4.63
2018-05-24T11:25:53.494Z,4.90
2018-05-24T11:28:22.273Z,5.97
2018-05-24T11:30:50.990Z,4.33
2018-05-24T11:33:19.195Z,5.67
2018-05-24T11:35:47.790Z,4.83
2018-05-24T11:38:16.268Z,6.70
2018-05-24T11:40:45.150Z,4.23
2018-05-24T11:43:13.669Z,5.07
2018-05-24T11:45:42.906Z,4.37
2018-05-24T11:48:10.716Z,6.97
2018-05-24T11:50:39.183Z,5.67
2018-05-24T11:53:07.303Z,4.67
2018-05-24T11:55:35.314Z,8.70
2018-05-24T11:58:02.955Z,6.20
2018-05-24T12:00:30.603Z,5.33
2018-05-24T12:02:58.204Z,7.90
2018-05-24T12:05:26.621Z,5.73
2018-05-24T12:07:54.627Z,3.70
2018-05-24T12:10:22.239Z,6.53
2018-05-24T12:12:49.877Z,9.77
2018-05-24T12:15:18.305Z,5.93
2018-05-24T12:17:45.915Z,6.83
2018-05-24T12:20:14.914Z,5.17
2018-05-24T12:22:43.290Z,6.97
2018-05-24T12:25:11.672Z,8.00
2018-05-24T12:27:40.024Z,4.67
2018-05-24T12:30:07.664Z,5.37
2018-05-24T12:32:35.282Z,7.53
2018-05-24T12:35:03.728Z,8.43
2018-05-24T12:37:31.357Z,6.57
2018-05-24T12:39:58.948Z,5.53
2018-05-24T12:42:27.026Z,6.50
2018-05-24T12:44:55.989Z,4.80
2018-05-24T12:47:23.606Z,9.07
2018-05-24T12:49:52.008Z,6.93
2018-05-24T12:52:20.029Z,7.57
2018-05-24T12:54:47.671Z,7.27
2018-05-24T12:57:15.282Z,11.03
2018-05-24T12:59:44.062Z,10.90
2018-05-24T13:02:13.030Z,9.90
2018-05-24T13:04:42.476Z,6.80
2018-05-24T13:07:10.072Z,6.17
2018-05-24T13:09:37.692Z,8.07
2018-05-24T13:12:05.422Z,7.73
2018-05-24T13:14:33.035Z,6.57
2018-05-24T13:17:01.057Z,7.87
2018-05-24T13:19:29.880Z,7.83
2018-05-24T13:21:57.918Z,6.87
2018-05-24T13:24:26.316Z,13.30
2018-05-24T13:26:54.727Z,10.27
2018-05-24T13:29:22.371Z,7.17
2018-05-24T13:31:50.111Z,8.20
2018-05-24T13:34:18.871Z,6.93
2018-05-24T13:36:46.491Z,6.10
2018-05-24T13:39:14.193Z,6.63
2018-05-24T13:41:41.799Z,6.87
2018-05-24T13:44:09.423Z,8.60
2018-05-24T13:46:37.840Z,7.23
2018-05-24T13:49:05.857Z,7.63
2018-05-24T13:51:34.614Z,9.40
2018-05-24T13:54:02.210Z,4.90
2018-05-24T13:56:29.835Z,5.87
2018-05-24T13:58:57.489Z,6.23
2018-05-24T14:01:25.545Z,5.53
2018-05-24T14:03:54.338Z,6.43
2018-05-24T14:06:21.950Z,5.80
2018-05-24T14:08:49.967Z,6.70
2018-05-24T14:11:17.590Z,7.50
2018-05-24T14:13:45.232Z,10.70
2018-05-24T14:16:12.852Z,7.07
2018-05-24T14:18:41.234Z,7.40
2018-05-24T14:21:08.887Z,7.10
2018-05-24T14:23:37.608Z,8.50
2018-05-24T14:26:06.423Z,8.17
2018-05-24T14:28:35.136Z,6.47
2018-05-24T14:31:03.914Z,5.60
2018-05-24T14:33:31.548Z,6.20
2018-05-24T14:36:00.661Z,8.63
2018-05-24T14:38:28.679Z,7.43
2018-05-24T14:40:57.814Z,8.53
2018-05-24T14:43:25.831Z,7.73
2018-05-24T14:45:53.838Z,9.47
2018-05-24T14:48:22.986Z,9.13
2018-05-24T14:50:50.652Z,6.30
2018-05-24T14:53:19.441Z,9.37
2018-05-24T14:55:47.910Z,10.13
2018-05-24T14:58:15.511Z,7.57
2018-05-24T15:00:43.268Z,7.93
2018-05-24T15:03:10.868Z,14.73
2018-05-24T15:05:38.486Z,8.07
2018-05-24T15:08:06.641Z,7.87
2018-05-24T15:10:34.636Z,7.10
2018-05-24T15:13:02.232Z,8.63
2018-05-24T15:15:30.278Z,5.10
2018-05-24T15:17:58.268Z,7.53
2018-05-24T15:20:26.020Z,6.77
2018-05-24T15:22:53.644Z,9.43
2018-05-24T15:25:21.717Z,8.27
2018-05-24T15:27:50.373Z,9.73
2018-05-24T15:30:18.406Z,5.73
2018-05-24T15:32:46.162Z,10.50
2018-05-24T15:35:13.805Z,7.67
2018-05-24T15:37:41.431Z,12.10
2018-05-24T15:40:09.615Z,11.80
2018-05-24T15:42:37.200Z,7.77
2018-05-24T15:45:05.222Z,6.77
2018-05-24T15:47:32.874Z,9.73
2018-05-24T15:50:00.936Z,7.87
2018-05-24T15:52:29.320Z,12.23
2018-05-24T15:54:58.072Z,8.97
2018-05-24T15:57:26.101Z,9.40
2018-05-24T15:59:53.718Z,10.83
2018-05-24T16:02:21.784Z,9.60
2018-05-24T16:04:49.407Z,14.93
2018-05-24T16:07:17.869Z,7.20
2018-05-24T16:09:46.499Z,10.70
2018-05-24T16:12:14.875Z,11.60
2018-05-24T16:14:42.882Z,6.83
2018-05-24T16:17:11.869Z,6.87
2018-05-24T16:19:40.822Z,8.83
2018-05-24T16:22:09.886Z,8.47
2018-05-24T16:24:37.511Z,9.00
2018-05-24T16:27:05.133Z,8.07
2018-05-24T16:29:34.222Z,9.50
2018-05-24T16:32:02.617Z,8.80
2018-05-24T16:34:31.006Z,10.87
2018-05-24T16:36:59.615Z,10.27
2018-05-24T16:39:28.589Z,8.77
2018-05-24T16:41:56.979Z,10.37
2018-05-24T16:44:25.026Z,10.00
2018-05-24T16:46:53.392Z,12.13
2018-05-24T16:49:22.354Z,8.70
2018-05-24T16:51:50.390Z,9.37
2018-05-24T16:54:18.040Z,11.03
2018-05-24T16:56:45.707Z,6.53
2018-05-24T16:59:14.868Z,8.20
2018-05-24T17:01:43.854Z,7.20
2018-05-24T17:04:13.002Z,8.60
2018-05-24T17:06:41.412Z,8.63
2018-05-24T17:09:11.148Z,12.33
2018-05-24T17:11:39.587Z,8.90
2018-05-24T17:14:07.198Z,7.00
2018-05-24T17:16:36.215Z,8.57
2018-05-24T17:19:05.186Z,7.90
2018-05-24T17:21:33.592Z,13.70
2018-05-24T17:24:01.464Z,9.27
2018-05-24T17:26:30.279Z,12.67
2018-05-24T17:28:59.252Z,8.73
2018-05-24T17:31:26.887Z,11.00
2018-05-24T17:33:55.303Z,8.47
2018-05-24T17:36:22.916Z,8.60
2018-05-24T17:38:51.902Z,10.73
2018-05-24T17:41:19.560Z,9.83
2018-05-24T17:43:47.197Z,8.90
2018-05-24T17:46:16.153Z,10.13
2018-05-24T17:48:44.183Z,8.20
2018-05-24T17:51:12.202Z,7.70
2018-05-24T17:53:40.358Z,8.37
2018-05-24T17:56:09.321Z,8.90
2018-05-24T17:58:36.971Z,10.43
2018-05-24T18:01:04.622Z,9.33
2018-05-24T18:03:32.221Z,10.10
2018-05-24T18:06:01.256Z,10.00
2018-05-24T18:08:28.885Z,10.70
2018-05-24T18:10:56.671Z,11.20
2018-05-24T18:13:24.442Z,12.10
2018-05-24T18:15:53.463Z,9.70
2018-05-24T18:18:21.468Z,11.47
2018-05-24T18:20:49.521Z,13.97
2018-05-24T18:23:18.624Z,8.13
2018-05-24T18:25:46.352Z,9.60
2018-05-24T18:28:14.730Z,13.53
2018-05-24T18:30:42.362Z,7.73
2018-05-24T18:33:11.357Z,10.90
2018-05-24T18:35:39.770Z,11.50
2018-05-24T18:38:07.378Z,9.13
2018-05-24T18:40:35.855Z,12.37
2018-05-24T18:43:04.974Z,8.87
2018-05-24T18:45:32.576Z,12.57
2018-05-24T18:48:00.611Z,11.03
2018-05-24T18:50:28.638Z,10.93
2018-05-24T18:52:57.808Z,9.80
2018-05-24T18:55:25.419Z,14.27
2018-05-24T18:57:53.052Z,11.70
2018-05-24T19:00:21.465Z,10.77
2018-05-24T19:02:49.642Z,11.13
2018-05-24T19:05:18.054Z,8.20
2018-05-24T19:07:46.522Z,9.67
2018-05-24T19:10:14.366Z,8.87
2018-05-24T19:12:42.043Z,8.53
2018-05-24T19:15:10.447Z,9.47
2018-05-24T19:17:38.606Z,10.37
2018-05-24T19:20:06.196Z,8.40
2018-05-24T19:22:33.814Z,10.63
2018-05-24T19:25:02.995Z,11.13
2018-05-24T19:27:30.767Z,10.83
2018-05-24T19:29:58.405Z,10.27
2018-05-24T19:32:26.792Z,12.53
2018-05-24T19:34:55.785Z,11.80
2018-05-24T19:37:23.806Z,12.43
2018-05-24T19:39:52.954Z,9.63
2018-05-24T19:42:21.374Z,9.13
2018-05-24T19:44:49.404Z,8.87
2018-05-24T19:47:17.820Z,9.20
2018-05-24T19:49:46.206Z,10.07
2018-05-24T19:52:13.863Z,9.93
2018-05-24T19:54:42.822Z,9.87
2018-05-24T19:57:10.619Z,8.53
2018-05-24T19:59:39.345Z,9.03
2018-05-24T20:02:08.694Z,10.70
2018-05-24T20:04:37.937Z,13.20
2018-05-24T20:07:06.745Z,9.03
2018-05-24T20:09:35.116Z,12.90
2018-05-24T20:12:02.749Z,8.13
2018-05-24T20:14:30.379Z,10.00
2018-05-24T20:16:59.623Z,12.37
2018-05-24T20:19:28.820Z,8.97
2018-05-24T20:21:57.818Z,10.20
2018-05-24T20:24:27.024Z,11.40
2018-05-24T20:26:56.174Z,11.73
2018-05-24T20:29:24.883Z,10.37
2018-05-24T20:31:53.396Z,9.43
2018-05-24T20:34:22.159Z,9.93
2018-05-24T20:36:51.225Z,10.67
2018-05-24T20:39:20.642Z,10.17
2018-05-24T20:41:48.278Z,9.03
2018-05-24T20:44:15.956Z,10.80
2018-05-24T20:46:44.019Z,9.43
2018-05-24T20:49:12.135Z,13.37
2018-05-24T20:51:39.930Z,8.17
2018-05-24T20:54:07.558Z,11.03
2018-05-24T20:56:35.174Z,9.43
2018-05-24T20:59:03.962Z,8.93
2018-05-24T21:01:32.724Z,10.27
2018-05-24T21:04:01.285Z,10.83
2018-05-24T21:06:28.914Z,10.37
2018-05-24T21:08:57.040Z,9.97
2018-05-24T21:11:25.433Z,10.13
2018-05-24T21:13:54.261Z,11.17
2018-05-24T21:16:21.860Z,12.97
2018-05-24T21:18:50.284Z,12.13
2018-05-24T21:21:17.988Z,13.70
2018-05-24T21:23:45.605Z,12.67
2018-05-24T21:26:14.360Z,13.33
2018-05-24T21:28:42.766Z,12.27
2018-05-24T21:31:11.900Z,12.33
2018-05-24T21:33:39.563Z,12.97
2018-05-24T21:36:07.168Z,12.30
2018-05-24T21:38:35.238Z,13.13
2018-05-24T21:41:04.222Z,11.83
2018-05-24T21:43:32.612Z,10.97
2018-05-24T21:46:01.029Z,12.53
2018-05-24T21:48:28.669Z,11.03
2018-05-24T21:50:56.297Z,12.20
2018-05-24T21:53:24.379Z,9.80
2018-05-24T21:55:51.985Z,13.43
2018-05-24T21:58:20.042Z,11.03
2018-05-24T22:00:51.618Z,10.90
2018-05-24T22:03:19.262Z,10.73
2018-05-24T22:05:46.916Z,11.17
2018-05-24T22:08:15.289Z,9.70
2018-05-24T22:10:43.005Z,10.90
2018-05-24T22:13:12.188Z,10.60
2018-05-24T22:15:39.890Z,13.07
2018-05-24T22:18:07.518Z,11.27
2018-05-24T22:20:35.120Z,13.47
2018-05-24T22:23:02.776Z,11.40
2018-05-24T22:25:30.782Z,10.70
2018-05-24T22:27:59.551Z,10.50
2018-05-24T22:30:27.161Z,11.40
2018-05-24T22:32:54.825Z,12.27
2018-05-24T22:35:22.838Z,12.03
2018-05-24T22:37:51.236Z,10.50
2018-05-24T22:40:19.050Z,11.00
2018-05-24T22:42:47.024Z,10.23
2018-05-24T22:45:15.781Z,11.03
2018-05-24T22:47:43.827Z,15.93
2018-05-24T22:50:11.453Z,13.27
2018-05-24T22:52:39.881Z,13.63
2018-05-24T22:55:07.496Z,15.60
2018-05-24T22:57:36.308Z,12.70
2018-05-24T23:00:05.434Z,11.10
2018-05-24T23:02:33.060Z,12.67
2018-05-24T23:05:01.489Z,12.77
2018-05-24T23:07:29.106Z,11.33
2018-05-24T23:09:57.528Z,9.83
2018-05-24T23:12:25.907Z,10.73
2018-05-24T23:14:53.929Z,10.07
2018-05-24T23:17:21.613Z,9.83
2018-05-24T23:19:49.383Z,10.73
2018-05-24T23:22:28.745Z,10.50
2018-05-24T23:24:56.425Z,9.53
2018-05-24T23:27:25.169Z,8.63
2018-05-24T23:29:52.790Z,10.30
2018-05-24T23:32:20.450Z,7.57
2018-05-24T23:34:48.826Z,6.80
2018-05-24T23:37:17.250Z,5.97
2018-05-24T23:39:45.634Z,7.27
2018-05-24T23:42:13.674Z,10.73
2018-05-24T23:44:41.342Z,6.00
2018-05-24T23:47:10.085Z,7.00
2018-05-24T23:49:39.208Z,7.47
2018-05-24T23:52:07.624Z,6.37
2018-05-24T23:54:36.352Z,7.43
2018-05-24T23:57:04.532Z,8.13
2018-05-24T23:59:32.921Z,6.30
